sensor_id;sensor_type;location;lat;lon;timestamp;pressure;altitude;pressure_sealevel;temperature;humidity
7105;BME280;3594;42.152;24.714;2023-11-19T00:01:07;60404.84;;;6.55;nan
7105;BME280;3594;42.152;24.714;2023-11-19T00:03:33;60350.47;;;6.49;nan
7105;BME280;3594;42.152;24.714;2023-11-19T00:05:59;60439.91;;;6.36;nan
7105;BME280;3594;42.152;24.714;2023-11-19T00:08:24;60473.66;;;6.44;nan
7105;BME280;3594;42.152;24.714;2023-11-19T00:10:50;60379.81;;;6.44;nan
7105;BME280;3594;42.152;24.714;2023-11-19T00:13:16;60432.56;;;6.39;nan
7105;BME280;3594;42.152;24.714;2023-11-19T00:15:41;60366.97;;;6.32;nan
7105;BME280;3594;42.152;24.714;2023-11-19T00:18:07;60321.34;;;6.28;nan
7105;BME280;3594;42.152;24.714;2023-11-19T00:20:32;60342.31;;;6.49;nan
7105;BME280;3594;42.152;24.714;2023-11-19T00:22:58;60508.03;;;6.52;nan
7105;BME280;3594;42.152;24.714;2023-11-19T00:25:23;60491.78;;;6.33;nan
7105;BME280;3594;42.152;24.714;2023-11-19T00:27:49;60462.19;;;6.31;nan
7105;BME280;3594;42.152;24.714;2023-11-19T00:30:15;60519.88;;;5.87;nan
7105;BME280;3594;42.152;24.714;2023-11-19T00:32:42;60386.31;;;6.43;nan
7105;BME280;3594;42.152;24.714;2023-11-19T00:35:08;60452.66;;;6.22;nan
7105;BME280;3594;42.152;24.714;2023-11-19T00:37:35;60366.50;;;6.52;nan
7105;BME280;3594;42.152;24.714;2023-11-19T00:40:01;60391.03;;;6.54;nan
7105;BME280;3594;42.152;24.714;2023-11-19T00:42:30;60381.16;;;6.56;nan
7105;BME280;3594;42.152;24.714;2023-11-19T00:44:56;60505.50;;;6.52;nan
7105;BME280;3594;42.152;24.714;2023-11-19T00:47:21;60363.84;;;6.36;nan
7105;BME280;3594;42.152;24.714;2023-11-19T00:49:47;60450.50;;;6.55;nan
7105;BME280;3594;42.152;24.714;2023-11-19T00:52:14;60371.88;;;6.55;nan
7105;BME280;3594;42.152;24.714;2023-11-19T00:54:40;60559.63;;;6.46;nan
7105;BME280;3594;42.152;24.714;2023-11-19T00:57:05;60325.28;;;6.31;nan
7105;BME280;3594;42.152;24.714;2023-11-19T00:59:31;60448.06;;;6.37;nan
7105;BME280;3594;42.152;24.714;2023-11-19T01:01:58;60352.47;;;6.49;nan
7105;BME280;3594;42.152;24.714;2023-11-19T01:04:24;60373.31;;;6.49;nan
7105;BME280;3594;42.152;24.714;2023-11-19T01:06:49;60418.97;;;6.49;nan
7105;BME280;3594;42.152;24.714;2023-11-19T01:09:15;60491.78;;;6.33;nan
7105;BME280;3594;42.152;24.714;2023-11-19T01:11:40;60450.84;;;6.44;nan
7105;BME280;3594;42.152;24.714;2023-11-19T01:14:06;60370.34;;;5.92;nan
7105;BME280;3594;42.152;24.714;2023-11-19T01:16:31;60451.31;;;6.14;nan
7105;BME280;3594;42.152;24.714;2023-11-19T01:18:57;60436.84;;;6.31;nan
7105;BME280;3594;42.152;24.714;2023-11-19T01:21:22;60409.59;;;6.18;nan
7105;BME280;3594;42.152;24.714;2023-11-19T01:23:48;60370.00;;;6.42;nan
7105;BME280;3594;42.152;24.714;2023-11-19T01:26:13;60318.22;;;6.32;nan
7105;BME280;3594;42.152;24.714;2023-11-19T01:28:39;60420.72;;;5.94;nan
7105;BME280;3594;42.152;24.714;2023-11-19T01:31:05;60465.00;;;6.34;nan
7105;BME280;3594;42.152;24.714;2023-11-19T01:33:31;60414.13;;;6.13;nan
7105;BME280;3594;42.152;24.714;2023-11-19T01:35:57;60518.59;;;6.22;nan
7105;BME280;3594;42.152;24.714;2023-11-19T01:38:24;60379.31;;;6.39;nan
7105;BME280;3594;42.152;24.714;2023-11-19T01:40:50;60488.69;;;6.32;nan
7105;BME280;3594;42.152;24.714;2023-11-19T01:43:34;60460.59;;;6.11;nan
7105;BME280;3594;42.152;24.714;2023-11-19T01:46:01;60420.59;;;6.16;nan
7105;BME280;3594;42.152;24.714;2023-11-19T01:48:29;60484.22;;;6.24;nan
7105;BME280;3594;42.152;24.714;2023-11-19T01:50:55;60440.63;;;6.09;nan
7105;BME280;3594;42.152;24.714;2023-11-19T01:53:21;60313.78;;;6.23;nan
7105;BME280;3594;42.152;24.714;2023-11-19T01:55:47;60435.78;;;6.21;nan
7105;BME280;3594;42.152;24.714;2023-11-19T01:58:13;60384.75;;;6.28;nan
7105;BME280;3594;42.152;24.714;2023-11-19T02:00:39;60407.13;;;6.09;nan
7105;BME280;3594;42.152;24.714;2023-11-19T02:03:06;60447.97;;;6.02;nan
7105;BME280;3594;42.152;24.714;2023-11-19T02:05:33;60349.28;;;6.23;nan
7105;BME280;3594;42.152;24.714;2023-11-19T02:08:00;60342.88;;;6.15;nan
7105;BME280;3594;42.152;24.714;2023-11-19T02:10:26;60337.31;;;6.05;nan
7105;BME280;3594;42.152;24.714;2023-11-19T02:12:51;60596.38;;;6.19;nan
7105;BME280;3594;42.152;24.714;2023-11-19T02:15:17;60607.06;;;6.15;nan
7105;BME280;3594;42.152;24.714;2023-11-19T02:17:44;60454.31;;;6.33;nan
7105;BME280;3594;42.152;24.714;2023-11-19T02:20:10;60441.94;;;6.27;nan
7105;BME280;3594;42.152;24.714;2023-11-19T02:22:38;60469.59;;;6.19;nan
7105;BME280;3594;42.152;24.714;2023-11-19T02:25:07;60347.00;;;6.26;nan
7105;BME280;3594;42.152;24.714;2023-11-19T02:27:51;60384.16;;;6.32;nan
7105;BME280;3594;42.152;24.714;2023-11-19T02:30:20;60395.66;;;5.96;nan
7105;BME280;3594;42.152;24.714;2023-11-19T02:32:46;60422.44;;;5.86;nan
7105;BME280;3594;42.152;24.714;2023-11-19T02:35:13;60581.47;;;6.08;nan
7105;BME280;3594;42.152;24.714;2023-11-19T02:37:38;60321.09;;;6.25;nan
7105;BME280;3594;42.152;24.714;2023-11-19T02:40:05;60338.06;;;6.17;nan
7105;BME280;3594;42.152;24.714;2023-11-19T02:42:31;60329.91;;;6.12;nan
7105;BME280;3594;42.152;24.714;2023-11-19T02:44:57;60384.84;;;6.14;nan
7105;BME280;3594;42.152;24.714;2023-11-19T02:47:22;60257.59;;;6.04;nan
7105;BME280;3594;42.152;24.714;2023-11-19T02:49:49;60336.28;;;6.25;nan
7105;BME280;3594;42.152;24.714;2023-11-19T02:52:15;60333.50;;;6.22;nan
7105;BME280;3594;42.152;24.714;2023-11-19T02:54:43;60438.88;;;6.21;nan
7105;BME280;3594;42.152;24.714;2023-11-19T02:57:08;60444.00;;;6.12;nan
7105;BME280;3594;42.152;24.714;2023-11-19T02:59:38;60401.50;;;6.08;nan
7105;BME280;3594;42.152;24.714;2023-11-19T03:02:07;60365.28;;;6.31;nan
7105;BME280;3594;42.152;24.714;2023-11-19T03:04:37;60333.47;;;6.27;nan
7105;BME280;3594;42.152;24.714;2023-11-19T03:07:07;60460.56;;;6.20;nan
7105;BME280;3594;42.152;24.714;2023-11-19T03:09:33;60406.81;;;6.11;nan
7105;BME280;3594;42.152;24.714;2023-11-19T03:12:02;60448.19;;;6.18;nan
7105;BME280;3594;42.152;24.714;2023-11-19T03:14:27;60369.53;;;6.28;nan
7105;BME280;3594;42.152;24.714;2023-11-19T03:16:53;60341.72;;;6.18;nan
7105;BME280;3594;42.152;24.714;2023-11-19T03:19:19;60287.03;;;6.24;nan
7105;BME280;3594;42.152;24.714;2023-11-19T03:21:44;60362.22;;;6.26;nan
7105;BME280;3594;42.152;24.714;2023-11-19T03:24:10;60346.56;;;6.07;nan
7105;BME280;3594;42.152;24.714;2023-11-19T03:26:35;60443.44;;;6.12;nan
7105;BME280;3594;42.152;24.714;2023-11-19T03:29:02;60350.72;;;6.17;nan
7105;BME280;3594;42.152;24.714;2023-11-19T03:31:28;60369.34;;;6.11;nan
7105;BME280;3594;42.152;24.714;2023-11-19T03:33:54;60426.88;;;6.04;nan
7105;BME280;3594;42.152;24.714;2023-11-19T03:36:19;60340.88;;;6.15;nan
7105;BME280;3594;42.152;24.714;2023-11-19T03:38:45;60294.06;;;5.85;nan
7105;BME280;3594;42.152;24.714;2023-11-19T03:41:13;60392.34;;;5.79;nan
7105;BME280;3594;42.152;24.714;2023-11-19T03:43:40;60387.16;;;6.02;nan
7105;BME280;3594;42.152;24.714;2023-11-19T03:46:21;60319.72;;;5.78;nan
7105;BME280;3594;42.152;24.714;2023-11-19T03:48:47;60365.56;;;5.85;nan
7105;BME280;3594;42.152;24.714;2023-11-19T03:51:13;60387.56;;;5.77;nan
7105;BME280;3594;42.152;24.714;2023-11-19T03:53:43;60386.72;;;5.79;nan
7105;BME280;3594;42.152;24.714;2023-11-19T03:56:09;60268.88;;;5.62;nan
7105;BME280;3594;42.152;24.714;2023-11-19T03:58:35;60347.34;;;5.71;nan
7105;BME280;3594;42.152;24.714;2023-11-19T04:01:01;60396.88;;;5.74;nan
7105;BME280;3594;42.152;24.714;2023-11-19T04:03:27;60285.88;;;5.89;nan
7105;BME280;3594;42.152;24.714;2023-11-19T04:05:53;60284.16;;;5.96;nan
7105;BME280;3594;42.152;24.714;2023-11-19T04:08:18;60249.84;;;5.84;nan
7105;BME280;3594;42.152;24.714;2023-11-19T04:10:44;60377.53;;;5.64;nan
7105;BME280;3594;42.152;24.714;2023-11-19T04:13:09;60173.38;;;3.66;nan
7105;BME280;3594;42.152;24.714;2023-11-19T04:15:35;60262.78;;;5.91;nan
7105;BME280;3594;42.152;24.714;2023-11-19T04:18:00;60385.28;;;5.80;nan
7105;BME280;3594;42.152;24.714;2023-11-19T04:20:26;60420.47;;;5.91;nan
7105;BME280;3594;42.152;24.714;2023-11-19T04:22:51;60403.91;;;5.74;nan
7105;BME280;3594;42.152;24.714;2023-11-19T04:25:16;60324.69;;;5.96;nan
7105;BME280;3594;42.152;24.714;2023-11-19T04:27:44;60390.06;;;5.91;nan
7105;BME280;3594;42.152;24.714;2023-11-19T04:30:10;60367.81;;;5.92;nan
7105;BME280;3594;42.152;24.714;2023-11-19T04:32:36;60388.75;;;5.65;nan
7105;BME280;3594;42.152;24.714;2023-11-19T04:35:02;60321.91;;;5.89;nan
7105;BME280;3594;42.152;24.714;2023-11-19T04:37:27;60283.66;;;5.87;nan
7105;BME280;3594;42.152;24.714;2023-11-19T04:39:53;60367.38;;;5.64;nan
7105;BME280;3594;42.152;24.714;2023-11-19T04:42:18;60386.84;;;5.56;nan
7105;BME280;3594;42.152;24.714;2023-11-19T04:44:44;60480.28;;;5.54;nan
7105;BME280;3594;42.152;24.714;2023-11-19T04:47:10;60358.19;;;5.49;nan
7105;BME280;3594;42.152;24.714;2023-11-19T04:49:40;60336.00;;;5.40;nan
7105;BME280;3594;42.152;24.714;2023-11-19T04:52:08;60235.34;;;5.31;nan
7105;BME280;3594;42.152;24.714;2023-11-19T04:54:34;60334.56;;;5.41;nan
7105;BME280;3594;42.152;24.714;2023-11-19T04:56:59;60304.84;;;5.28;nan
7105;BME280;3594;42.152;24.714;2023-11-19T04:59:25;60220.69;;;5.37;nan
7105;BME280;3594;42.152;24.714;2023-11-19T05:01:50;60316.97;;;5.18;nan
7105;BME280;3594;42.152;24.714;2023-11-19T05:04:16;60281.81;;;5.21;nan
7105;BME280;3594;42.152;24.714;2023-11-19T05:06:44;60328.75;;;5.29;nan
7105;BME280;3594;42.152;24.714;2023-11-19T05:09:09;60291.38;;;5.20;nan
7105;BME280;3594;42.152;24.714;2023-11-19T05:11:37;60290.84;;;4.63;nan
7105;BME280;3594;42.152;24.714;2023-11-19T05:14:03;60372.44;;;5.11;nan
7105;BME280;3594;42.152;24.714;2023-11-19T05:16:29;60230.31;;;5.27;nan
7105;BME280;3594;42.152;24.714;2023-11-19T05:18:55;60206.03;;;5.03;nan
7105;BME280;3594;42.152;24.714;2023-11-19T05:21:20;60321.31;;;4.97;nan
7105;BME280;3594;42.152;24.714;2023-11-19T05:23:46;60257.06;;;5.21;nan
7105;BME280;3594;42.152;24.714;2023-11-19T05:26:22;60321.28;;;5.06;nan
7105;BME280;3594;42.152;24.714;2023-11-19T05:28:48;60321.19;;;5.20;nan
7105;BME280;3594;42.152;24.714;2023-11-19T05:31:14;60360.06;;;5.05;nan
7105;BME280;3594;42.152;24.714;2023-11-19T05:33:39;60466.63;;;5.16;nan
7105;BME280;3594;42.152;24.714;2023-11-19T05:36:05;60184.78;;;4.83;nan
7105;BME280;3594;42.152;24.714;2023-11-19T05:38:33;60285.88;;;5.02;nan
7105;BME280;3594;42.152;24.714;2023-11-19T05:40:59;60243.91;;;5.12;nan
7105;BME280;3594;42.152;24.714;2023-11-19T05:43:24;60193.88;;;5.12;nan
7105;BME280;3594;42.152;24.714;2023-11-19T05:45:50;60238.00;;;5.13;nan
7105;BME280;3594;42.152;24.714;2023-11-19T05:48:15;60171.19;;;4.99;nan
7105;BME280;3594;42.152;24.714;2023-11-19T05:50:42;60317.81;;;5.21;nan
7105;BME280;3594;42.152;24.714;2023-11-19T05:53:07;60197.16;;;5.24;nan
7105;BME280;3594;42.152;24.714;2023-11-19T05:55:36;60295.66;;;5.13;nan
7105;BME280;3594;42.152;24.714;2023-11-19T05:58:10;60444.06;;;5.28;nan
7105;BME280;3594;42.152;24.714;2023-11-19T06:00:38;60244.28;;;5.40;nan
7105;BME280;3594;42.152;24.714;2023-11-19T06:03:03;60328.16;;;5.33;nan
7105;BME280;3594;42.152;24.714;2023-11-19T06:05:29;60371.78;;;5.29;nan
7105;BME280;3594;42.152;24.714;2023-11-19T06:07:55;60333.53;;;5.31;nan
7105;BME280;3594;42.152;24.714;2023-11-19T06:10:20;60363.75;;;5.58;nan
7105;BME280;3594;42.152;24.714;2023-11-19T06:12:46;60266.34;;;5.62;nan
7105;BME280;3594;42.152;24.714;2023-11-19T06:15:12;60250.94;;;5.55;nan
7105;BME280;3594;42.152;24.714;2023-11-19T06:17:38;60404.31;;;5.49;nan
7105;BME280;3594;42.152;24.714;2023-11-19T06:20:05;60411.63;;;5.51;nan
7105;BME280;3594;42.152;24.714;2023-11-19T06:22:30;60412.63;;;5.75;nan
7105;BME280;3594;42.152;24.714;2023-11-19T06:24:56;60380.88;;;5.67;nan
7105;BME280;3594;42.152;24.714;2023-11-19T06:27:22;60436.22;;;5.92;nan
7105;BME280;3594;42.152;24.714;2023-11-19T06:29:47;60403.03;;;5.80;nan
7105;BME280;3594;42.152;24.714;2023-11-19T06:32:13;60379.25;;;6.04;nan
7105;BME280;3594;42.152;24.714;2023-11-19T06:34:38;60221.97;;;5.88;nan
7105;BME280;3594;42.152;24.714;2023-11-19T06:37:04;60259.16;;;6.19;nan
7105;BME280;3594;42.152;24.714;2023-11-19T06:39:29;60203.34;;;6.24;nan
7105;BME280;3594;42.152;24.714;2023-11-19T06:41:55;60256.00;;;6.28;nan
7105;BME280;3594;42.152;24.714;2023-11-19T06:44:21;60340.63;;;6.13;nan
7105;BME280;3594;42.152;24.714;2023-11-19T06:46:48;60284.41;;;6.33;nan
7105;BME280;3594;42.152;24.714;2023-11-19T06:49:13;60264.13;;;6.33;nan
7105;BME280;3594;42.152;24.714;2023-11-19T06:51:42;60414.75;;;6.48;nan
7105;BME280;3594;42.152;24.714;2023-11-19T06:54:09;60322.09;;;6.40;nan
7105;BME280;3594;42.152;24.714;2023-11-19T06:56:34;60452.84;;;6.39;nan
7105;BME280;3594;42.152;24.714;2023-11-19T06:58:59;60456.75;;;6.47;nan
7105;BME280;3594;42.152;24.714;2023-11-19T07:03:50;60512.41;;;6.74;nan
7105;BME280;3594;42.152;24.714;2023-11-19T07:06:16;60523.22;;;6.56;nan
7105;BME280;3594;42.152;24.714;2023-11-19T07:08:42;60478.41;;;6.55;nan
7105;BME280;3594;42.152;24.714;2023-11-19T07:11:10;60483.16;;;6.61;nan
7105;BME280;3594;42.152;24.714;2023-11-19T07:13:37;60527.59;;;6.83;nan
7105;BME280;3594;42.152;24.714;2023-11-19T07:16:03;60396.78;;;7.09;nan
7105;BME280;3594;42.152;24.714;2023-11-19T07:18:28;60554.50;;;7.07;nan
7105;BME280;3594;42.152;24.714;2023-11-19T07:20:54;60563.31;;;6.95;nan
7105;BME280;3594;42.152;24.714;2023-11-19T07:23:19;60584.34;;;7.21;nan
7105;BME280;3594;42.152;24.714;2023-11-19T07:25:45;60513.84;;;7.17;nan
7105;BME280;3594;42.152;24.714;2023-11-19T07:28:15;60428.53;;;7.27;nan
7105;BME280;3594;42.152;24.714;2023-11-19T07:30:40;60446.69;;;7.16;nan
7105;BME280;3594;42.152;24.714;2023-11-19T07:33:06;60431.25;;;7.38;nan
7105;BME280;3594;42.152;24.714;2023-11-19T07:35:32;60546.31;;;7.12;nan
7105;BME280;3594;42.152;24.714;2023-11-19T07:37:57;60583.31;;;7.49;nan
7105;BME280;3594;42.152;24.714;2023-11-19T07:40:23;60520.63;;;7.52;nan
7105;BME280;3594;42.152;24.714;2023-11-19T07:42:49;60371.47;;;7.35;nan
7105;BME280;3594;42.152;24.714;2023-11-19T07:45:14;60580.19;;;7.53;nan
7105;BME280;3594;42.152;24.714;2023-11-19T07:47:40;60614.03;;;7.57;nan
7105;BME280;3594;42.152;24.714;2023-11-19T07:50:06;60599.78;;;7.80;nan
7105;BME280;3594;42.152;24.714;2023-11-19T07:52:31;60591.13;;;7.66;nan
7105;BME280;3594;42.152;24.714;2023-11-19T07:54:57;60511.06;;;7.83;nan
7105;BME280;3594;42.152;24.714;2023-11-19T07:57:22;60608.78;;;7.84;nan
7105;BME280;3594;42.152;24.714;2023-11-19T07:59:49;60478.28;;;7.85;nan
7105;BME280;3594;42.152;24.714;2023-11-19T08:02:14;60455.13;;;7.83;nan
7105;BME280;3594;42.152;24.714;2023-11-19T08:04:40;60670.47;;;7.66;nan
7105;BME280;3594;42.152;24.714;2023-11-19T08:07:10;60592.75;;;7.76;nan
7105;BME280;3594;42.152;24.714;2023-11-19T08:09:36;60393.59;;;6.06;nan
7105;BME280;3594;42.152;24.714;2023-11-19T08:12:03;60617.97;;;7.60;nan
7105;BME280;3594;42.152;24.714;2023-11-19T08:14:29;60534.41;;;7.19;nan
7105;BME280;3594;42.152;24.714;2023-11-19T08:16:54;60614.66;;;7.91;nan
7105;BME280;3594;42.152;24.714;2023-11-19T08:19:20;60583.06;;;7.86;nan
7105;BME280;3594;42.152;24.714;2023-11-19T08:21:45;60498.22;;;7.96;nan
7105;BME280;3594;42.152;24.714;2023-11-19T08:24:11;60546.25;;;7.98;nan
7105;BME280;3594;42.152;24.714;2023-11-19T08:26:36;60655.38;;;7.87;nan
7105;BME280;3594;42.152;24.714;2023-11-19T08:29:02;60504.41;;;8.02;nan
7105;BME280;3594;42.152;24.714;2023-11-19T08:31:28;60647.97;;;7.98;nan
7105;BME280;3594;42.152;24.714;2023-11-19T08:33:54;60575.22;;;7.79;nan
7105;BME280;3594;42.152;24.714;2023-11-19T08:36:19;60539.19;;;7.99;nan
7105;BME280;3594;42.152;24.714;2023-11-19T08:38:45;60617.69;;;8.01;nan
7105;BME280;3594;42.152;24.714;2023-11-19T08:41:11;60556.00;;;8.14;nan
7105;BME280;3594;42.152;24.714;2023-11-19T08:43:36;60623.25;;;7.76;nan
7105;BME280;3594;42.152;24.714;2023-11-19T08:46:03;60517.53;;;7.86;nan
7105;BME280;3594;42.152;24.714;2023-11-19T08:48:29;60609.91;;;7.85;nan
7105;BME280;3594;42.152;24.714;2023-11-19T08:50:54;60614.28;;;8.07;nan
7105;BME280;3594;42.152;24.714;2023-11-19T08:53:20;60646.44;;;8.13;nan
7105;BME280;3594;42.152;24.714;2023-11-19T08:55:46;60608.34;;;7.65;nan
7105;BME280;3594;42.152;24.714;2023-11-19T08:58:11;60679.56;;;7.51;nan
7105;BME280;3594;42.152;24.714;2023-11-19T09:00:37;60590.75;;;7.81;nan
7105;BME280;3594;42.152;24.714;2023-11-19T09:03:02;60486.34;;;7.99;nan
7105;BME280;3594;42.152;24.714;2023-11-19T09:05:28;60640.59;;;8.01;nan
7105;BME280;3594;42.152;24.714;2023-11-19T09:07:53;60619.63;;;8.10;nan
7105;BME280;3594;42.152;24.714;2023-11-19T09:10:19;60413.00;;;7.88;nan
7105;BME280;3594;42.152;24.714;2023-11-19T09:12:44;60515.31;;;8.14;nan
7105;BME280;3594;42.152;24.714;2023-11-19T09:15:10;60577.69;;;7.88;nan
7105;BME280;3594;42.152;24.714;2023-11-19T09:17:38;60643.03;;;8.15;nan
7105;BME280;3594;42.152;24.714;2023-11-19T09:20:04;60631.69;;;8.23;nan
7105;BME280;3594;42.152;24.714;2023-11-19T09:22:30;60539.34;;;8.11;nan
7105;BME280;3594;42.152;24.714;2023-11-19T09:24:56;60593.69;;;8.39;nan
7105;BME280;3594;42.152;24.714;2023-11-19T09:27:24;60646.91;;;8.32;nan
7105;BME280;3594;42.152;24.714;2023-11-19T09:29:50;60578.34;;;8.48;nan
7105;BME280;3594;42.152;24.714;2023-11-19T09:32:22;60768.75;;;8.25;nan
7105;BME280;3594;42.152;24.714;2023-11-19T09:34:47;60557.94;;;8.53;nan
7105;BME280;3594;42.152;24.714;2023-11-19T09:37:13;60675.44;;;8.28;nan
7105;BME280;3594;42.152;24.714;2023-11-19T09:39:38;60574.94;;;8.50;nan
7105;BME280;3594;42.152;24.714;2023-11-19T09:42:04;60547.50;;;8.80;nan
7105;BME280;3594;42.152;24.714;2023-11-19T09:44:29;60531.47;;;8.72;nan
7105;BME280;3594;42.152;24.714;2023-11-19T09:46:56;60638.25;;;8.52;nan
7105;BME280;3594;42.152;24.714;2023-11-19T09:49:26;60637.50;;;8.39;nan
7105;BME280;3594;42.152;24.714;2023-11-19T09:51:52;60670.00;;;8.43;nan
7105;BME280;3594;42.152;24.714;2023-11-19T09:54:18;60597.84;;;8.79;nan
7105;BME280;3594;42.152;24.714;2023-11-19T09:56:43;60692.22;;;8.96;nan
7105;BME280;3594;42.152;24.714;2023-11-19T09:59:09;60556.16;;;8.90;nan
7105;BME280;3594;42.152;24.714;2023-11-19T10:01:38;60576.97;;;8.74;nan
7105;BME280;3594;42.152;24.714;2023-11-19T10:04:04;60667.25;;;8.71;nan
7105;BME280;3594;42.152;24.714;2023-11-19T10:06:31;60603.78;;;8.82;nan
7105;BME280;3594;42.152;24.714;2023-11-19T10:08:57;60612.41;;;8.97;nan
7105;BME280;3594;42.152;24.714;2023-11-19T10:11:22;60559.84;;;8.61;nan
7105;BME280;3594;42.152;24.714;2023-11-19T10:13:48;60595.66;;;8.73;nan
7105;BME280;3594;42.152;24.714;2023-11-19T10:16:14;60701.97;;;8.81;nan
7105;BME280;3594;42.152;24.714;2023-11-19T10:18:47;60601.75;;;8.88;nan
7105;BME280;3594;42.152;24.714;2023-11-19T10:21:14;60554.78;;;8.86;nan
7105;BME280;3594;42.152;24.714;2023-11-19T10:23:49;60645.56;;;8.93;nan
7105;BME280;3594;42.152;24.714;2023-11-19T10:26:15;60792.50;;;8.80;nan
7105;BME280;3594;42.152;24.714;2023-11-19T10:28:41;60544.69;;;8.77;nan
7105;BME280;3594;42.152;24.714;2023-11-19T10:31:12;60739.22;;;8.97;nan
7105;BME280;3594;42.152;24.714;2023-11-19T10:33:38;60655.03;;;9.10;nan
7105;BME280;3594;42.152;24.714;2023-11-19T10:36:04;60647.38;;;9.10;nan
7105;BME280;3594;42.152;24.714;2023-11-19T10:38:30;60541.28;;;8.79;nan
7105;BME280;3594;42.152;24.714;2023-11-19T10:40:55;60698.53;;;8.88;nan
7105;BME280;3594;42.152;24.714;2023-11-19T10:43:22;60572.91;;;9.14;nan
7105;BME280;3594;42.152;24.714;2023-11-19T10:45:49;60610.25;;;8.86;nan
7105;BME280;3594;42.152;24.714;2023-11-19T10:48:14;60662.41;;;9.08;nan
7105;BME280;3594;42.152;24.714;2023-11-19T10:50:41;60735.19;;;9.02;nan
7105;BME280;3594;42.152;24.714;2023-11-19T10:53:08;60834.38;;;9.25;nan
7105;BME280;3594;42.152;24.714;2023-11-19T10:55:37;60567.22;;;8.88;nan
7105;BME280;3594;42.152;24.714;2023-11-19T10:58:10;60678.84;;;9.04;nan
7105;BME280;3594;42.152;24.714;2023-11-19T11:03:19;60776.78;;;9.44;nan
7105;BME280;3594;42.152;24.714;2023-11-19T11:05:51;60545.13;;;9.17;nan
7105;BME280;3594;42.152;24.714;2023-11-19T11:08:19;60733.47;;;9.40;nan
7105;BME280;3594;42.152;24.714;2023-11-19T11:10:53;60850.94;;;9.51;nan
7105;BME280;3594;42.152;24.714;2023-11-19T11:13:18;60672.41;;;9.60;nan
7105;BME280;3594;42.152;24.714;2023-11-19T11:15:44;60697.31;;;9.60;nan
7105;BME280;3594;42.152;24.714;2023-11-19T11:18:12;60730.00;;;9.50;nan
7105;BME280;3594;42.152;24.714;2023-11-19T11:20:38;60587.09;;;9.39;nan
7105;BME280;3594;42.152;24.714;2023-11-19T11:28:52;60775.91;;;9.46;nan
7105;BME280;3594;42.152;24.714;2023-11-19T11:34:24;60804.34;;;9.69;nan
7105;BME280;3594;42.152;24.714;2023-11-19T11:39:42;60738.28;;;9.42;nan
7105;BME280;3594;42.152;24.714;2023-11-19T11:45:15;60699.91;;;9.85;nan
7105;BME280;3594;42.152;24.714;2023-11-19T11:50:11;60676.03;;;9.91;nan
7105;BME280;3594;42.152;24.714;2023-11-19T11:55:27;60820.44;;;9.76;nan
7105;BME280;3594;42.152;24.714;2023-11-19T11:57:54;60761.59;;;9.95;nan
7105;BME280;3594;42.152;24.714;2023-11-19T12:00:40;60722.91;;;9.81;nan
7105;BME280;3594;42.152;24.714;2023-11-19T12:03:07;60686.78;;;9.66;nan
7105;BME280;3594;42.152;24.714;2023-11-19T12:05:38;60773.63;;;9.83;nan
7105;BME280;3594;42.152;24.714;2023-11-19T12:08:07;60747.94;;;10.01;nan
7105;BME280;3594;42.152;24.714;2023-11-19T12:10:49;60744.72;;;9.84;nan
7105;BME280;3594;42.152;24.714;2023-11-19T12:13:16;60674.00;;;9.71;nan
7105;BME280;3594;42.152;24.714;2023-11-19T12:18:23;60810.69;;;9.56;nan
7105;BME280;3594;42.152;24.714;2023-11-19T12:20:48;60744.78;;;9.75;nan
7105;BME280;3594;42.152;24.714;2023-11-19T12:23:14;60795.56;;;10.02;nan
7105;BME280;3594;42.152;24.714;2023-11-19T12:25:40;60735.47;;;10.03;nan
7105;BME280;3594;42.152;24.714;2023-11-19T12:28:11;60708.34;;;9.93;nan
7105;BME280;3594;42.152;24.714;2023-11-19T12:30:38;60787.28;;;9.76;nan
7105;BME280;3594;42.152;24.714;2023-11-19T12:33:10;60667.09;;;9.79;nan
7105;BME280;3594;42.152;24.714;2023-11-19T12:35:40;60675.19;;;9.93;nan
7105;BME280;3594;42.152;24.714;2023-11-19T12:38:06;60930.88;;;9.89;nan
7105;BME280;3594;42.152;24.714;2023-11-19T12:40:32;60713.63;;;9.74;nan
7105;BME280;3594;42.152;24.714;2023-11-19T12:42:57;60707.78;;;9.62;nan
7105;BME280;3594;42.152;24.714;2023-11-19T12:45:24;60679.28;;;9.78;nan
7105;BME280;3594;42.152;24.714;2023-11-19T12:47:50;60652.50;;;9.65;nan
7105;BME280;3594;42.152;24.714;2023-11-19T12:50:29;60686.56;;;9.59;nan
7105;BME280;3594;42.152;24.714;2023-11-19T12:52:58;60783.91;;;9.73;nan
7105;BME280;3594;42.152;24.714;2023-11-19T12:55:30;60767.69;;;9.45;nan
7105;BME280;3594;42.152;24.714;2023-11-19T12:57:57;60748.63;;;9.23;nan
7105;BME280;3594;42.152;24.714;2023-11-19T13:00:26;60729.44;;;9.50;nan
7105;BME280;3594;42.152;24.714;2023-11-19T13:02:53;60603.66;;;9.51;nan
7105;BME280;3594;42.152;24.714;2023-11-19T13:05:32;60686.03;;;9.54;nan
7105;BME280;3594;42.152;24.714;2023-11-19T13:08:09;60659.34;;;9.62;nan
7105;BME280;3594;42.152;24.714;2023-11-19T13:10:50;60688.50;;;9.63;nan
7105;BME280;3594;42.152;24.714;2023-11-19T13:13:16;60643.53;;;9.57;nan
7105;BME280;3594;42.152;24.714;2023-11-19T13:15:41;60885.25;;;9.43;nan
7105;BME280;3594;42.152;24.714;2023-11-19T13:18:08;60644.59;;;9.63;nan
7105;BME280;3594;42.152;24.714;2023-11-19T13:20:33;60635.16;;;9.45;nan
7105;BME280;3594;42.152;24.714;2023-11-19T13:23:00;60775.16;;;9.34;nan
7105;BME280;3594;42.152;24.714;2023-11-19T13:25:27;60750.72;;;9.44;nan
7105;BME280;3594;42.152;24.714;2023-11-19T13:27:53;60609.41;;;9.43;nan
7105;BME280;3594;42.152;24.714;2023-11-19T13:30:19;60776.19;;;9.44;nan
7105;BME280;3594;42.152;24.714;2023-11-19T13:32:44;60579.84;;;9.27;nan
7105;BME280;3594;42.152;24.714;2023-11-19T13:35:12;60691.31;;;8.67;nan
7105;BME280;3594;42.152;24.714;2023-11-19T13:37:38;60575.31;;;9.28;nan
7105;BME280;3594;42.152;24.714;2023-11-19T13:40:06;60719.75;;;9.20;nan
7105;BME280;3594;42.152;24.714;2023-11-19T13:42:31;60732.25;;;9.18;nan
7105;BME280;3594;42.152;24.714;2023-11-19T13:44:57;60678.91;;;9.00;nan
7105;BME280;3594;42.152;24.714;2023-11-19T13:47:22;60720.50;;;8.98;nan
7105;BME280;3594;42.152;24.714;2023-11-19T13:49:49;60644.41;;;8.96;nan
7105;BME280;3594;42.152;24.714;2023-11-19T13:52:15;60663.91;;;8.98;nan
7105;BME280;3594;42.152;24.714;2023-11-19T13:54:40;60674.00;;;9.07;nan
7105;BME280;3594;42.152;24.714;2023-11-19T13:57:06;60605.03;;;9.00;nan
7105;BME280;3594;42.152;24.714;2023-11-19T13:59:31;60579.28;;;8.97;nan
7105;BME280;3594;42.152;24.714;2023-11-19T14:02:00;60695.22;;;8.75;nan
7105;BME280;3594;42.152;24.714;2023-11-19T14:04:25;60684.75;;;8.77;nan
7105;BME280;3594;42.152;24.714;2023-11-19T14:06:51;60484.66;;;6.90;nan
7105;BME280;3594;42.152;24.714;2023-11-19T14:09:17;60547.03;;;8.70;nan